Terminal Aerodrome Forecast
Issued by NWS

Home | Current Version | Previous Version | Text Only | Print | Product List | Glossary On
Versions: 1 2 3 4 5 6 7 8 9 10 11 12 13 14 15
755
FTUS42 KMLB 221740
TAFFPR
TAF
KFPR 221740Z 2218/2318 11018G26KT P6SM VCSH SCT025 BKN035
      TEMPO 2219/2222 2SM +SHRA BKN020
     FM230000 11010KT P6SM VCSH SCT020 BKN030
     FM230600 14006KT P6SM VCSH SCT025 BKN035
     FM231400 15013G19KT P6SM VCSH SCT025 BKN080=

USA.gov is the U.S. government's official web portal to all federal, state and local government web resources and services.